»·PEaware :: DAL2080 KLAX-KLAS

DAL2080 :: KLAX-KLAS

FLIGHT INFORMATION

Flight Status: Arrived
Operator:
Delta Air Lines
More flights by this operator :: More flights under this callsign
Pilot: Jac C. (16067)
Aircraft: MCDONNELL-DOUGLAS MD-88
(MD88)
More flights by this aircraft type
Origin: KLAX Los Angeles Intl
United States
Destination: KLAS McCarran Intl
United States
More flights between these airports :: More routes between these airports
Route: ORCKA2 MISEN KEPEC6
File this flight plan on PilotEdge
Remarks:
Altitude:
(Current/Filed)
27,000ft
Speed:
(Current/Filed)
423kts
Departed: 14-Feb-18 07:12 PM
Arrived: 14-Feb-18 08:11 PM
Distance/Time
Traveled:
205nm/0:59
Distance/Time
To Go:
Arrived

Flight Plot

Page will automatically refresh every two minutes.

Flight plan parsing failed; only flown route is shown


Map Options




Map Legend


Flown Route
Filed Route
Departure Airport
Arrival Airport
Navaid (VOR, NDB)
Fix

Horizontal Profiles

Position Reports

Time Latitude Longitude Heading Altitude Ground
Speed
14-Feb-18 18:52 33.941467 -118.401421 264 117ft 0kts
14-Feb-18 18:53 33.941467 -118.401421 264 117ft 0kts
14-Feb-18 18:54 33.941467 -118.401421 264 117ft 0kts
14-Feb-18 18:55 33.941467 -118.401421 264 117ft 0kts
14-Feb-18 18:56 33.941467 -118.401421 264 117ft 0kts
14-Feb-18 18:57 33.941467 -118.401421 264 117ft 0kts
14-Feb-18 18:58 33.941467 -118.401421 264 117ft 0kts
14-Feb-18 18:59 33.941467 -118.401421 264 117ft 0kts
14-Feb-18 19:00 33.941467 -118.401421 264 117ft 0kts
14-Feb-18 19:01 33.941467 -118.401421 264 117ft 0kts
14-Feb-18 19:02 33.941467 -118.401421 264 117ft 0kts
14-Feb-18 19:03 33.941467 -118.401421 264 117ft 0kts
14-Feb-18 19:04 33.941467 -118.401421 264 117ft 0kts
14-Feb-18 19:05 33.941467 -118.401421 264 117ft 0kts
14-Feb-18 19:06 33.941470 -118.401396 264 117ft 1kts
14-Feb-18 19:07 33.941763 -118.400896 192 116ft 2kts
14-Feb-18 19:08 33.941953 -118.400892 172 116ft 0kts
14-Feb-18 19:09 33.941953 -118.400892 172 116ft 0kts
14-Feb-18 19:10 33.941953 -118.400892 172 116ft 0kts
14-Feb-18 19:11 33.941953 -118.400892 172 116ft 0kts
14-Feb-18 19:12 33.940333 -118.400679 172 116ft 10kts
14-Feb-18 19:13 33.938921 -118.398488 83 111ft 15kts
14-Feb-18 19:14 33.939503 -118.392811 83 104ft 14kts
14-Feb-18 19:15 33.940027 -118.387614 83 101ft 15kts
14-Feb-18 19:16 33.940462 -118.383457 82 98ft 14kts
14-Feb-18 19:17 33.940703 -118.380802 100 98ft 0kts
14-Feb-18 19:18 33.940616 -118.380532 121 98ft 8kts
14-Feb-18 19:19 33.938828 -118.390218 262 102ft 125kts
14-Feb-18 19:20 33.932290 -118.448089 264 2246ft 212kts
14-Feb-18 19:21 33.913826 -118.516615 247 2727ft 204kts
14-Feb-18 19:22 33.887872 -118.588378 248 4420ft 255kts
14-Feb-18 19:23 33.847212 -118.654063 197 5998ft 266kts
14-Feb-18 19:24 33.793755 -118.605836 90 8191ft 290kts
14-Feb-18 19:25 33.836297 -118.524233 49 10212ft 319kts
14-Feb-18 19:26 33.904230 -118.448527 30 12198ft 344kts
14-Feb-18 19:27 33.976222 -118.371786 60 14345ft 369kts
14-Feb-18 19:28 34.027715 -118.265772 52 16214ft 383kts
14-Feb-18 19:29 34.088677 -118.157911 52 18049ft 399kts
14-Feb-18 19:30 34.151630 -118.046514 52 19807ft 412kts
14-Feb-18 19:31 34.216697 -117.930156 52 21483ft 425kts
14-Feb-18 19:32 34.283615 -117.810741 52 23137ft 434kts
14-Feb-18 19:33 34.352538 -117.687971 51 24497ft 449kts
14-Feb-18 19:34 34.426120 -117.563664 50 25817ft 462kts
14-Feb-18 19:35 34.501736 -117.435046 51 27034ft 473kts
14-Feb-18 19:36 34.577703 -117.305958 51 27100ft 475kts
14-Feb-18 19:37 34.654492 -117.175712 51 27100ft 475kts
14-Feb-18 19:38 34.731166 -117.045918 50 27101ft 475kts
14-Feb-18 19:39 34.807938 -116.916176 50 27103ft 474kts
14-Feb-18 19:40 34.872167 -116.807813 50 27104ft 474kts
14-Feb-18 19:41 34.948504 -116.677178 51 27106ft 474kts
14-Feb-18 19:42 35.022722 -116.545104 51 27029ft 472kts
14-Feb-18 19:43 35.111247 -116.393852 44 24083ft 459kts
14-Feb-18 19:44 35.181767 -116.303695 41 22666ft 433kts
14-Feb-18 19:45 35.262852 -116.201237 41 21044ft 408kts
14-Feb-18 19:46 35.339331 -116.104399 41 19529ft 386kts
14-Feb-18 19:47 35.411914 -116.012567 41 18105ft 366kts
14-Feb-18 19:48 35.480894 -115.925372 41 16751ft 348kts
14-Feb-18 19:49 35.546809 -115.842130 41 15458ft 332kts
14-Feb-18 19:50 35.609749 -115.762708 41 14237ft 318kts
14-Feb-18 19:51 35.670444 -115.686186 41 13088ft 310kts
14-Feb-18 19:52 35.729501 -115.610771 42 13009ft 308kts
14-Feb-18 19:53 35.801001 -115.569499 355 13027ft 289kts
14-Feb-18 19:54 35.882372 -115.567854 358 12978ft 294kts
14-Feb-18 19:55 35.962829 -115.559700 23 12952ft 293kts
14-Feb-18 19:56 36.001464 -115.475819 72 12118ft 288kts
14-Feb-18 19:57 36.028347 -115.384326 74 11062ft 278kts
14-Feb-18 19:58 36.025825 -115.292368 99 10060ft 271kts
14-Feb-18 19:59 36.018456 -115.200551 98 8986ft 264kts
14-Feb-18 20:00 36.012425 -115.113604 96 8223ft 244kts
14-Feb-18 20:01 36.007280 -115.032988 96 8108ft 230kts
14-Feb-18 20:02 36.002429 -114.953106 94 7977ft 235kts
14-Feb-18 20:03 35.997645 -114.872582 94 8049ft 237kts
14-Feb-18 20:04 35.992733 -114.794374 93 7964ft 204kts
14-Feb-18 20:05 35.988308 -114.727745 93 7999ft 191kts
14-Feb-18 20:06 35.983995 -114.662234 93 8001ft 191kts
14-Feb-18 20:07 35.993160 -114.602293 27 8007ft 188kts
14-Feb-18 20:08 36.045030 -114.597550 2 8001ft 188kts
14-Feb-18 20:09 36.071224 -114.643146 271 7861ft 192kts
14-Feb-18 20:10 36.073347 -114.711052 273 8003ft 199kts
14-Feb-18 20:11 36.074025 -114.779651 269 7411ft 199kts
14-Feb-18 20:12 36.073878 -114.847348 268 6531ft 196kts
14-Feb-18 20:13 36.073798 -114.914762 268 5688ft 198kts
14-Feb-18 20:14 36.075859 -114.981299 268 4822ft 178kts
14-Feb-18 20:15 36.074243 -115.036162 268 3565ft 151kts
14-Feb-18 20:16 36.073762 -115.087469 267 2724ft 149kts
14-Feb-18 20:17 36.073690 -115.137623 267 2079ft 132kts
14-Feb-18 20:18 36.073778 -115.160798 300 2161ft 6kts
14-Feb-18 20:19 36.077476 -115.161230 6 2153ft 23kts
14-Feb-18 20:20 36.078018 -115.154124 90 2126ft 21kts

Navigation Log

Ident Type
Flight plan parsing failed, navigation log unavailable